Terminal Aerodrome Forecast
Issued by NWS Sterling, VA

Current Version | Previous Version | Graphics & Text | Print | Product List | Glossary On
Versions: 1 2 3 4 5 6 7 8 9 10 11 12 13 14 15 16
219
FTUS41 KLWX 081120
TAFMRB
TAF
KMRB 081120Z 0812/0912 VRB03KT 5SM BR SCT250
     FM081400 10005KT P6SM BKN200
     FM082100 12005KT 5SM -RA OVC020
     FM082300 12005KT 3/4SM -SN OVC009
     FM090200 08005KT 1/2SM SN OVC005=

USA.gov is the U.S. government's official web portal to all federal, state and local government web resources and services.